| time (UTC) | temp C | wind direction | speed KPH | gust KPH | rain 1hr cm | rain 24hr cm | rain mn cm | humidity % | barometer mb |
| 20260506143013 | 15 | 194 | 11.3 | 14.5 | 0.00 | 0.00 | 0.00 | 87 | 1009.3 |
| 20260506142510 | 15 | 283 | 4.8 | 8.0 | 0.00 | 0.00 | 0.00 | 87 | 1009.3 |
| 20260506142008 | 15 | 230 | 6.4 | 9.7 | 0.00 | 0.00 | 0.00 | 87 | 1009.4 |
| 20260506141505 | 15 | 169 | 9.7 | 12.9 | 0.00 | 0.00 | 0.00 | 87 | 1009.5 |
| 20260506141004 | 16 | 283 | 6.4 | 8.0 | 0.00 | 0.00 | 0.00 | 86 | 1009.6 |
| 20260506140501 | 16 | 213 | 4.8 | 4.8 | 0.00 | 0.00 | 0.00 | 86 | 1009.7 |
| 20260506135957 | 16 | 302 | 4.8 | 8.0 | 0.00 | 0.00 | 0.00 | 86 | 1009.8 |
| 20260506135454 | 16 | 216 | 4.8 | 8.0 | 0.00 | 0.00 | 0.00 | 86 | 1009.8 |
| 20260506134950 | 16 | 182 | 6.4 | 8.0 | 0.00 | 0.00 | 0.00 | 86 | 1009.8 |
| 20260506134446 | 16 | 123 | 6.4 | 8.0 | 0.00 | 0.00 | 0.00 | 86 | 1009.9 |
| 20260506133943 | 16 | 185 | 9.7 | 12.9 | 0.00 | 0.00 | 0.00 | 86 | 1009.9 |
| 20260506133441 | 15 | 212 | 9.7 | 12.9 | 0.00 | 0.00 | 0.00 | 87 | 1009.7 |
| 20260506132937 | 15 | 219 | 4.8 | 8.0 | 0.00 | 0.00 | 0.00 | 87 | 1009.7 |
| 20260506132434 | 16 | 121 | 6.4 | 9.7 | 0.00 | 0.00 | 0.00 | 86 | 1009.9 |
| 20260506131932 | 16 | 131 | 9.7 | 11.3 | 0.00 | 0.00 | 0.00 | 86 | 1009.8 |
| 20260506131428 | 16 | 219 | 8.0 | 9.7 | 0.00 | 0.00 | 0.00 | 86 | 1009.6 |
| 20260506130925 | 16 | 306 | 4.8 | 9.7 | 0.00 | 0.00 | 0.00 | 87 | 1009.7 |
| 20260506130421 | 15 | 165 | 6.4 | 9.7 | 0.00 | 0.00 | 0.00 | 87 | 1009.8 |
| 20260506125920 | 15 | 137 | 3.2 | 4.8 | 0.00 | 0.00 | 0.00 | 88 | 1009.7 |
| 20260506125418 | 15 | 194 | 11.3 | 12.9 | 0.00 | 0.00 | 0.00 | 88 | 1009.8 |
| 20260506124916 | 15 | 101 | 8.0 | 11.3 | 0.00 | 0.00 | 0.00 | 88 | 1009.6 |
| 20260506124413 | 15 | 96 | 3.2 | 3.2 | 0.00 | 0.00 | 0.00 | 88 | 1009.7 |
| 20260506123911 | 15 | 280 | 4.8 | 4.8 | 0.00 | 0.00 | 0.00 | 88 | 1009.6 |
| 20260506123409 | 15 | 147 | 8.0 | 9.7 | 0.00 | 0.00 | 0.00 | 88 | 1009.6 |
| 20260506122906 | 15 | 280 | 4.8 | 4.8 | 0.00 | 0.00 | 0.00 | 88 | 1009.8 |
| 20260506122402 | 15 | 141 | 11.3 | 12.9 | 0.00 | 0.00 | 0.00 | 88 | 1010.0 |
| 20260506121901 | 15 | 154 | 3.2 | 3.2 | 0.00 | 0.00 | 0.00 | 88 | 1010.0 |
| 20260506121357 | 15 | 219 | 3.2 | 4.8 | 0.00 | 0.00 | 0.00 | 88 | 1009.9 |
| 20260506120854 | 15 | 255 | 3.2 | 4.8 | 0.00 | 0.00 | 0.00 | 90 | 1010.1 |
| 20260506120352 | 15 | 240 | 4.8 | 4.8 | 0.00 | 0.00 | 0.00 | 90 | 1010.1 |
| 20260506115849 | 15 | 183 | 3.2 | 4.8 | 0.00 | 0.00 | 0.00 | 90 | 1010.0 |
| 20260506115347 | 15 | 114 | 8.0 | 14.5 | 0.00 | 0.00 | 0.00 | 90 | 1010.3 |
| 20260506114845 | 15 | 100 | 11.3 | 12.9 | 0.00 | 0.00 | 0.00 | 91 | 1010.2 |
| 20260506114342 | 14 | 309 | 1.6 | 4.8 | 0.00 | 0.00 | 0.00 | 92 | 1010.2 |
| 20260506113841 | 14 | 297 | 4.8 | 4.8 | 0.00 | 0.00 | 0.00 | 92 | 1010.2 |
| 20260506113338 | 14 | 248 | 8.0 | 9.7 | 0.00 | 0.00 | 0.00 | 92 | 1010.0 |
| 20260506112834 | 13 | 328 | 0.0 | 0.0 | 0.00 | 0.00 | 0.00 | 93 | 1010.0 |
| 20260506112332 | 13 | 113 | 4.8 | 4.8 | 0.00 | 0.00 | 0.00 | 94 | 1009.8 |
| 20260506111829 | 13 | 191 | 4.8 | 4.8 | 0.00 | 0.00 | 0.00 | 94 | 1009.9 |
| 20260506111327 | 13 | 213 | 4.8 | 8.0 | 0.00 | 0.00 | 0.00 | 94 | 1010.0 |
| 20260506110824 | 13 | 109 | 8.0 | 11.3 | 0.00 | 0.00 | 0.00 | 95 | 1010.3 |
| 20260506110321 | 13 | 194 | 6.4 | 8.0 | 0.00 | 0.00 | 0.00 | 95 | 1010.2 |
| 20260506105818 | 13 | 135 | 4.8 | 4.8 | 0.00 | 0.00 | 0.00 | 95 | 1010.1 |
| 20260506105315 | 13 | 159 | 8.0 | 12.9 | 0.00 | 0.00 | 0.00 | 96 | 1009.9 |
| 20260506104812 | 13 | 79 | 1.6 | 1.6 | 0.00 | 0.00 | 0.00 | 96 | 1009.8 |
| 20260506104310 | 13 | 197 | 3.2 | 3.2 | 0.00 | 0.00 | 0.00 | 96 | 1010.0 |
| 20260506103807 | 13 | 126 | 3.2 | 3.2 | 0.00 | 0.00 | 0.00 | 96 | 1009.9 |
| 20260506103305 | 13 | 146 | 4.8 | 4.8 | 0.00 | 0.00 | 0.00 | 96 | 1010.1 |
| 20260506102802 | 13 | 132 | 1.6 | 1.6 | 0.00 | 0.00 | 0.00 | 96 | 1009.9 |
| 20260506102300 | 13 | 97 | 1.6 | 1.6 | 0.00 | 0.00 | 0.00 | 96 | 1010.0 |
| 20260506101757 | 13 | 302 | 1.6 | 1.6 | 0.00 | 0.00 | 0.00 | 96 | 1009.9 |
| 20260506101253 | 12 | 152 | 6.4 | 9.7 | 0.00 | 0.00 | 0.00 | 96 | 1009.8 |
| 20260506100751 | 13 | 201 | 4.8 | 8.0 | 0.00 | 0.00 | 0.00 | 96 | 1009.9 |
| 20260506100249 | 12 | 248 | 3.2 | 4.8 | 0.00 | 0.00 | 0.00 | 96 | 1010.0 |
| 20260506095747 | 13 | 239 | 6.4 | 8.0 | 0.00 | 0.00 | 0.00 | 96 | 1009.9 |
| 20260506095244 | 13 | 226 | 0.0 | 0.0 | 0.00 | 0.00 | 0.00 | 95 | 1009.9 |
| 20260506094740 | 13 | 325 | 4.8 | 8.0 | 0.00 | 0.00 | 0.00 | 95 | 1009.9 |
| 20260506094239 | 13 | 128 | 3.2 | 4.8 | 0.00 | 0.00 | 0.00 | 95 | 1009.9 |
| 20260506093737 | 13 | 261 | 8.0 | 11.3 | 0.00 | 0.00 | 0.00 | 95 | 1009.9 |
| 20260506093234 | 13 | 289 | 1.6 | 3.2 | 0.00 | 0.00 | 0.00 | 95 | 1009.8 |
| 20260506092732 | 13 | 147 | 3.2 | 3.2 | 0.00 | 0.00 | 0.00 | 95 | 1009.9 |
| 20260506092229 | 13 | 230 | 8.0 | 11.3 | 0.00 | 0.00 | 0.00 | 95 | 1009.7 |
| 20260506091726 | 13 | 170 | 4.8 | 4.8 | 0.00 | 0.00 | 0.00 | 95 | 1009.9 |
| 20260506091224 | 13 | 218 | 12.9 | 14.5 | 0.00 | 0.00 | 0.00 | 95 | 1009.9 |
| 20260506090722 | 13 | 95 | 6.4 | 8.0 | 0.00 | 0.00 | 0.00 | 94 | 1009.9 |
| 20260506090218 | 13 | 189 | 8.0 | 12.9 | 0.00 | 0.00 | 0.00 | 94 | 1009.7 |
| 20260506085715 | 13 | 269 | 4.8 | 4.8 | 0.00 | 0.00 | 0.00 | 94 | 1009.9 |
| 20260506085211 | 13 | 261 | 4.8 | 8.0 | 0.00 | 0.00 | 0.00 | 94 | 1010.2 |
| 20260506084708 | 13 | 302 | 0.0 | 0.0 | 0.00 | 0.00 | 0.00 | 94 | 1010.0 |
| 20260506084204 | 13 | 130 | 1.6 | 3.2 | 0.00 | 0.00 | 0.00 | 94 | 1010.2 |
| 20260506083701 | 13 | 250 | 6.4 | 9.7 | 0.00 | 0.00 | 0.00 | 94 | 1010.0 |
| 20260506083159 | 13 | 131 | 1.6 | 1.6 | 0.00 | 0.00 | 0.00 | 94 | 1010.0 |
| 20260506082656 | 13 | 73 | 0.0 | 0.0 | 0.00 | 0.00 | 0.00 | 94 | 1010.1 |
| 20260506082156 | 13 | 293 | 3.2 | 4.8 | 0.00 | 0.00 | 0.00 | 94 | 1010.1 |
| 20260506081655 | 13 | 93 | 4.8 | 8.0 | 0.00 | 0.00 | 0.00 | 94 | 1010.3 |
| 20260506081152 | 13 | 104 | 3.2 | 4.8 | 0.00 | 0.00 | 0.00 | 94 | 1010.4 |
| 20260506080650 | 13 | 179 | 4.8 | 4.8 | 0.00 | 0.00 | 0.00 | 94 | 1010.3 |
| 20260506080146 | 13 | 262 | 6.4 | 12.9 | 0.00 | 0.00 | 0.00 | 94 | 1010.4 |
| 20260506073130 | 13 | 109 | 3.2 | 3.2 | 0.00 | 0.00 | 0.00 | 93 | 1010.3 |
| 20260506072626 | 13 | 126 | 1.6 | 3.2 | 0.00 | 0.00 | 0.00 | 93 | 1010.4 |
| 20260506072125 | 13 | 174 | 6.4 | 8.0 | 0.00 | 0.00 | 0.00 | 93 | 1010.5 |
| 20260506071622 | 13 | 127 | 8.0 | 11.3 | 0.00 | 0.00 | 0.00 | 93 | 1010.5 |
| 20260506071120 | 13 | 156 | 6.4 | 9.7 | 0.00 | 0.00 | 0.00 | 93 | 1010.7 |
| 20260506070616 | 13 | 206 | 4.8 | 4.8 | 0.00 | 0.00 | 0.00 | 92 | 1010.5 |
| 20260506070114 | 13 | 286 | 12.9 | 16.1 | 0.00 | 0.00 | 0.00 | 92 | 1010.4 |
| 20260506062051 | 13 | 218 | 8.0 | 11.3 | 0.00 | 0.00 | 0.00 | 92 | 1010.4 |
| 20260506061546 | 13 | 131 | 8.0 | 11.3 | 0.00 | 0.00 | 0.00 | 91 | 1010.4 |
| 20260506061044 | 13 | 130 | 4.8 | 4.8 | 0.00 | 0.00 | 0.00 | 91 | 1010.5 |
| 20260506060543 | 13 | 176 | 4.8 | 4.8 | 0.00 | 0.00 | 0.00 | 91 | 1010.2 |
| 20260506051011 | 14 | 304 | 6.4 | 8.0 | 0.00 | 0.00 | 0.00 | 89 | 1010.7 |
| 20260506050509 | 14 | 217 | 8.0 | 9.7 | 0.00 | 0.00 | 0.00 | 89 | 1010.7 |
| 20260506045000 | 14 | 180 | 4.8 | 8.0 | 0.00 | 0.00 | 0.00 | 88 | 1010.9 |
| 20260506044458 | 14 | 140 | 8.0 | 9.7 | 0.00 | 0.00 | 0.00 | 88 | 1010.8 |
| 20260506043954 | 14 | 295 | 4.8 | 8.0 | 0.00 | 0.00 | 0.00 | 87 | 1010.8 |
| 20260506043451 | 14 | 263 | 6.4 | 11.3 | 0.00 | 0.00 | 0.00 | 87 | 1010.8 |
| 20260506042949 | 14 | 191 | 4.8 | 9.7 | 0.00 | 0.00 | 0.00 | 87 | 1010.8 |
| 20260506042449 | 14 | 209 | 1.6 | 3.2 | 0.00 | 0.00 | 0.00 | 87 | 1010.8 |
| 20260506041946 | 14 | 208 | 8.0 | 9.7 | 0.00 | 0.00 | 0.00 | 87 | 1010.6 |
| 20260506041444 | 15 | 153 | 11.3 | 14.5 | 0.00 | 0.00 | 0.00 | 86 | 1010.6 |
| 20260506040941 | 15 | 233 | 4.8 | 8.0 | 0.00 | 0.00 | 0.00 | 86 | 1010.8 |
| 20260506040438 | 15 | 180 | 8.0 | 9.7 | 0.00 | 0.00 | 0.00 | 86 | 1011.1 |
| 20260506035934 | 15 | 190 | 4.8 | 8.0 | 0.00 | 0.00 | 0.00 | 86 | 1010.8 |
| 20260506035432 | 15 | 141 | 6.4 | 8.0 | 0.00 | 0.00 | 0.00 | 86 | 1010.9 |
| 20260506034928 | 15 | 209 | 4.8 | 8.0 | 0.00 | 0.00 | 0.00 | 85 | 1010.9 |
| 20260506034426 | 15 | 242 | 3.2 | 8.0 | 0.00 | 0.00 | 0.00 | 85 | 1010.8 |
| 20260506033923 | 15 | 113 | 9.7 | 11.3 | 0.00 | 0.00 | 0.00 | 84 | 1010.7 |
| 20260506033420 | 15 | 120 | 4.8 | 4.8 | 0.00 | 0.00 | 0.00 | 84 | 1010.8 |
| 20260506032917 | 15 | 166 | 4.8 | 8.0 | 0.00 | 0.00 | 0.00 | 84 | 1010.8 |
| 20260506032414 | 16 | 207 | 4.8 | 4.8 | 0.00 | 0.00 | 0.00 | 83 | 1010.6 |
| 20260506031910 | 16 | 182 | 8.0 | 9.7 | 0.00 | 0.00 | 0.00 | 83 | 1010.7 |
| 20260506031408 | 16 | 234 | 4.8 | 8.0 | 0.00 | 0.00 | 0.00 | 82 | 1010.7 |
| 20260506030905 | 16 | 226 | 8.0 | 11.3 | 0.00 | 0.00 | 0.00 | 82 | 1010.7 |
| 20260506030403 | 16 | 284 | 3.2 | 3.2 | 0.00 | 0.00 | 0.00 | 82 | 1010.8 |
| 20260506025859 | 16 | 135 | 6.4 | 8.0 | 0.00 | 0.00 | 0.00 | 82 | 1010.7 |
| 20260506025356 | 16 | 260 | 6.4 | 12.9 | 0.00 | 0.00 | 0.00 | 82 | 1010.9 |
| 20260506024853 | 16 | 266 | 6.4 | 11.3 | 0.00 | 0.00 | 0.00 | 82 | 1010.6 |
| 20260506024350 | 16 | 300 | 9.7 | 16.1 | 0.00 | 0.00 | 0.00 | 82 | 1010.8 |
| 20260506023846 | 16 | 224 | 9.7 | 12.9 | 0.00 | 0.00 | 0.00 | 82 | 1010.7 |
| 20260506023343 | 16 | 224 | 9.7 | 12.9 | 0.00 | 0.00 | 0.00 | 81 | 1010.8 |
| 20260506022840 | 16 | 294 | 11.3 | 14.5 | 0.00 | 0.00 | 0.00 | 81 | 1010.8 |
| 20260506022338 | 16 | 255 | 4.8 | 8.0 | 0.00 | 0.00 | 0.00 | 81 | 1010.8 |
| 20260506021836 | 16 | 184 | 6.4 | 9.7 | 0.00 | 0.00 | 0.00 | 80 | 1010.7 |
| 20260506021332 | 16 | 95 | 3.2 | 4.8 | 0.00 | 0.00 | 0.00 | 80 | 1010.8 |
| 20260506020829 | 16 | 264 | 8.0 | 14.5 | 0.00 | 0.00 | 0.00 | 80 | 1010.9 |
| 20260506020327 | 16 | 171 | 4.8 | 4.8 | 0.00 | 0.00 | 0.00 | 80 | 1010.8 |
| 20260506015824 | 16 | 248 | 9.7 | 11.3 | 0.00 | 0.00 | 0.00 | 80 | 1010.6 |
| 20260506015321 | 16 | 207 | 3.2 | 8.0 | 0.00 | 0.00 | 0.00 | 80 | 1010.7 |
| 20260506014818 | 16 | 207 | 11.3 | 14.5 | 0.00 | 0.00 | 0.00 | 79 | 1010.7 |
| 20260506014315 | 16 | 92 | 3.2 | 4.8 | 0.00 | 0.00 | 0.00 | 79 | 1010.8 |
| 20260506013812 | 16 | 228 | 3.2 | 4.8 | 0.00 | 0.00 | 0.00 | 79 | 1010.6 |
| 20260506013309 | 16 | 203 | 8.0 | 11.3 | 0.00 | 0.00 | 0.00 | 79 | 1010.4 |
| 20260506012805 | 16 | 159 | 6.4 | 9.7 | 0.00 | 0.00 | 0.00 | 79 | 1010.5 |
| 20260506012307 | 16 | 252 | 6.4 | 9.7 | 0.00 | 0.00 | 0.00 | 78 | 1010.2 |
| 20260506011800 | 16 | 259 | 11.3 | 16.1 | 0.00 | 0.00 | 0.00 | 78 | 1010.3 |
| 20260506011256 | 16 | 257 | 8.0 | 9.7 | 0.00 | 0.00 | 0.00 | 77 | 1010.2 |
| 20260506010754 | 16 | 220 | 9.7 | 12.9 | 0.00 | 0.00 | 0.00 | 77 | 1010.2 |
| 20260506010251 | 16 | 252 | 11.3 | 16.1 | 0.00 | 0.00 | 0.00 | 77 | 1010.2 |
| 20260506005748 | 16 | 202 | 6.4 | 8.0 | 0.00 | 0.00 | 0.00 | 77 | 1010.1 |
| 20260506005245 | 16 | 149 | 9.7 | 14.5 | 0.00 | 0.00 | 0.00 | 76 | 1010.0 |
| 20260506004741 | 17 | 194 | 9.7 | 12.9 | 0.00 | 0.00 | 0.00 | 75 | 1009.9 |
| 20260506004239 | 17 | 260 | 8.0 | 11.3 | 0.00 | 0.00 | 0.00 | 74 | 1009.9 |
| 20260506003734 | 17 | 246 | 14.5 | 20.9 | 0.00 | 0.00 | 0.00 | 74 | 1010.0 |
| 20260506003231 | 17 | 244 | 8.0 | 11.3 | 0.00 | 0.00 | 0.00 | 73 | 1009.9 |
| 20260506002727 | 18 | 128 | 12.9 | 14.5 | 0.00 | 0.00 | 0.00 | 72 | 1009.6 |
| 20260506002223 | 18 | 247 | 9.7 | 14.5 | 0.00 | 0.00 | 0.00 | 72 | 1009.6 |
| 20260506001719 | 18 | 187 | 8.0 | 11.3 | 0.00 | 0.00 | 0.00 | 71 | 1009.6 |
| 20260506001217 | 18 | 221 | 9.7 | 12.9 | 0.00 | 0.00 | 0.00 | 71 | 1009.6 |
| 20260506000714 | 18 | 296 | 6.4 | 12.9 | 0.00 | 0.00 | 0.00 | 71 | 1009.6 |
| 20260506000212 | 18 | 255 | 19.3 | 22.5 | 0.00 | 0.00 | 0.00 | 71 | 1009.3 |
| 20260505235709 | 18 | 174 | 6.4 | 8.0 | 0.00 | 0.00 | 0.00 | 71 | 1009.4 |
| 20260505235206 | 18 | 178 | 9.7 | 16.1 | 0.00 | 0.00 | 0.00 | 70 | 1009.3 |
| 20260505234703 | 18 | 122 | 6.4 | 9.7 | 0.00 | 0.00 | 0.00 | 70 | 1009.2 |
| 20260505234200 | 18 | 106 | 4.8 | 8.0 | 0.00 | 0.00 | 0.00 | 70 | 1009.1 |
| 20260505233656 | 18 | 224 | 14.5 | 14.5 | 0.00 | 0.00 | 0.00 | 69 | 1008.9 |
| 20260505233155 | 18 | 241 | 6.4 | 9.7 | 0.00 | 0.00 | 0.00 | 70 | 1009.2 |
| 20260505232652 | 18 | 233 | 4.8 | 4.8 | 0.00 | 0.00 | 0.00 | 70 | 1008.7 |
| 20260505232149 | 18 | 199 | 8.0 | 9.7 | 0.00 | 0.00 | 0.00 | 70 | 1008.4 |
| 20260505231646 | 18 | 289 | 8.0 | 11.3 | 0.00 | 0.00 | 0.00 | 71 | 1008.8 |
| 20260505231145 | 17 | 212 | 11.3 | 14.5 | 0.00 | 0.00 | 0.00 | 71 | 1008.8 |
| 20260505230642 | 17 | 251 | 8.0 | 11.3 | 0.00 | 0.00 | 0.00 | 71 | 1008.6 |
| 20260505230139 | 18 | 293 | 6.4 | 11.3 | 0.00 | 0.00 | 0.00 | 71 | 1008.5 |
| 20260505225635 | 18 | 263 | 16.1 | 22.5 | 0.00 | 0.00 | 0.00 | 70 | 1008.6 |
| 20260505225131 | 18 | 234 | 9.7 | 12.9 | 0.00 | 0.00 | 0.00 | 70 | 1008.6 |
| 20260505224628 | 18 | 220 | 8.0 | 9.7 | 0.00 | 0.00 | 0.00 | 69 | 1008.7 |
| 20260505224126 | 18 | 198 | 8.0 | 12.9 | 0.00 | 0.00 | 0.00 | 69 | 1008.6 |
| 20260505223623 | 18 | 174 | 11.3 | 17.7 | 0.00 | 0.00 | 0.00 | 68 | 1008.6 |
| 20260505223119 | 18 | 246 | 16.1 | 24.1 | 0.00 | 0.00 | 0.00 | 68 | 1008.5 |
| 20260505222615 | 19 | 329 | 8.0 | 12.9 | 0.00 | 0.00 | 0.00 | 67 | 1008.5 |
| 20260505222111 | 19 | 219 | 17.7 | 24.1 | 0.00 | 0.00 | 0.00 | 66 | 1008.2 |
| 20260505221608 | 19 | 149 | 6.4 | 9.7 | 0.00 | 0.00 | 0.00 | 66 | 1008.4 |
| 20260505221105 | 20 | 188 | 9.7 | 12.9 | 0.00 | 0.00 | 0.00 | 66 | 1008.0 |
| 20260505220602 | 20 | 171 | 9.7 | 12.9 | 0.00 | 0.00 | 0.00 | 66 | 1008.2 |
| 20260505220100 | 20 | 73 | 4.8 | 8.0 | 0.00 | 0.00 | 0.00 | 65 | 1008.2 |
| 20260505215558 | 20 | 196 | 12.9 | 20.9 | 0.00 | 0.00 | 0.00 | 65 | 1008.4 |
| 20260505215055 | 20 | 44 | 8.0 | 12.9 | 0.00 | 0.00 | 0.00 | 65 | 1008.2 |
| 20260505214554 | 20 | 216 | 12.9 | 22.5 | 0.00 | 0.00 | 0.00 | 65 | 1008.2 |
| 20260505214050 | 20 | 206 | 9.7 | 12.9 | 0.00 | 0.00 | 0.00 | 65 | 1008.3 |
| 20260505213548 | 20 | 188 | 14.5 | 17.7 | 0.00 | 0.00 | 0.00 | 66 | 1008.3 |
| 20260505213044 | 20 | 229 | 14.5 | 22.5 | 0.00 | 0.00 | 0.00 | 65 | 1008.3 |
| 20260505212540 | 20 | 244 | 8.0 | 9.7 | 0.00 | 0.00 | 0.00 | 66 | 1007.9 |
| 20260505212038 | 20 | 249 | 4.8 | 8.0 | 0.00 | 0.00 | 0.00 | 66 | 1008.1 |
| 20260505211535 | 20 | 223 | 14.5 | 22.5 | 0.00 | 0.00 | 0.00 | 66 | 1008.0 |
| 20260505211031 | 19 | 239 | 9.7 | 12.9 | 0.00 | 0.00 | 0.00 | 67 | 1008.1 |
| 20260505210528 | 20 | 202 | 14.5 | 16.1 | 0.00 | 0.00 | 0.00 | 67 | 1008.1 |
| 20260505210026 | 20 | 199 | 12.9 | 20.9 | 0.00 | 0.00 | 0.00 | 68 | 1008.0 |
| 20260505205523 | 20 | 205 | 6.4 | 9.7 | 0.00 | 0.00 | 0.00 | 67 | 1008.2 |
| 20260505205020 | 20 | 183 | 6.4 | 8.0 | 0.00 | 0.00 | 0.00 | 67 | 1008.3 |
| 20260505204518 | 20 | 128 | 4.8 | 4.8 | 0.00 | 0.00 | 0.00 | 67 | 1008.2 |
| 20260505204015 | 20 | 237 | 3.2 | 4.8 | 0.00 | 0.00 | 0.00 | 67 | 1008.2 |
| 20260505203511 | 20 | 118 | 8.0 | 11.3 | 0.00 | 0.00 | 0.00 | 66 | 1008.4 |
| 20260505203008 | 20 | 117 | 4.8 | 4.8 | 0.00 | 0.00 | 0.00 | 66 | 1007.9 |
| 20260505202505 | 20 | 185 | 8.0 | 11.3 | 0.00 | 0.00 | 0.00 | 67 | 1008.2 |
| 20260505202001 | 20 | 85 | 9.7 | 16.1 | 0.00 | 0.00 | 0.00 | 67 | 1008.3 |
| 20260505201458 | 20 | 263 | 12.9 | 16.1 | 0.00 | 0.00 | 0.00 | 67 | 1008.2 |
| 20260505200955 | 20 | 209 | 11.3 | 16.1 | 0.00 | 0.00 | 0.00 | 66 | 1008.3 |
| 20260505200453 | 21 | 210 | 11.3 | 14.5 | 0.00 | 0.00 | 0.00 | 65 | 1008.3 |
| 20260505195948 | 21 | 86 | 3.2 | 4.8 | 0.00 | 0.00 | 0.00 | 65 | 1008.5 |
| 20260505195446 | 20 | 223 | 11.3 | 16.1 | 0.00 | 0.00 | 0.00 | 66 | 1008.4 |
| 20260505194943 | 21 | 266 | 6.4 | 8.0 | 0.00 | 0.00 | 0.00 | 64 | 1008.4 |
| 20260505194441 | 21 | 231 | 9.7 | 20.9 | 0.00 | 0.00 | 0.00 | 64 | 1008.6 |
| 20260505193940 | 21 | 187 | 11.3 | 14.5 | 0.00 | 0.00 | 0.00 | 64 | 1008.8 |
| 20260505193438 | 21 | 301 | 3.2 | 4.8 | 0.00 | 0.00 | 0.00 | 65 | 1008.7 |
| 20260505192935 | 20 | 155 | 11.3 | 14.5 | 0.00 | 0.00 | 0.00 | 66 | 1008.7 |
| 20260505192434 | 21 | 77 | 3.2 | 3.2 | 0.00 | 0.00 | 0.00 | 66 | 1008.8 |
| 20260505191931 | 20 | 180 | 8.0 | 11.3 | 0.00 | 0.00 | 0.00 | 67 | 1008.9 |
| 20260505191430 | 21 | 189 | 14.5 | 14.5 | 0.00 | 0.00 | 0.00 | 65 | 1009.0 |
| 20260505190926 | 20 | 221 | 8.0 | 12.9 | 0.00 | 0.00 | 0.00 | 68 | 1009.1 |
| 20260505190421 | 20 | 252 | 11.3 | 16.1 | 0.00 | 0.00 | 0.00 | 68 | 1009.4 |
| 20260505185917 | 20 | 164 | 16.1 | 20.9 | 0.00 | 0.00 | 0.00 | 67 | 1009.5 |
| 20260505185415 | 20 | 238 | 9.7 | 12.9 | 0.00 | 0.00 | 0.00 | 66 | 1009.7 |
| 20260505184910 | 20 | 112 | 3.2 | 8.0 | 0.00 | 0.00 | 0.00 | 68 | 1009.3 |
| 20260505184407 | 20 | 122 | 8.0 | 12.9 | 0.00 | 0.00 | 0.00 | 67 | 1009.7 |
| 20260505183904 | 20 | 129 | 11.3 | 14.5 | 0.00 | 0.00 | 0.00 | 67 | 1009.4 |
| 20260505183401 | 20 | 276 | 9.7 | 14.5 | 0.00 | 0.00 | 0.00 | 67 | 1009.4 |
| 20260505182858 | 20 | 199 | 14.5 | 20.9 | 0.00 | 0.00 | 0.00 | 67 | 1009.7 |
| 20260505182355 | 21 | 253 | 8.0 | 11.3 | 0.00 | 0.00 | 0.00 | 66 | 1009.7 |
| 20260505181851 | 20 | 163 | 11.3 | 12.9 | 0.00 | 0.00 | 0.00 | 68 | 1009.8 |
| 20260505181349 | 20 | 164 | 9.7 | 14.5 | 0.00 | 0.00 | 0.00 | 68 | 1009.7 |
| 20260505180845 | 20 | 167 | 11.3 | 14.5 | 0.00 | 0.00 | 0.00 | 67 | 1009.7 |
| 20260505180341 | 21 | 143 | 11.3 | 12.9 | 0.00 | 0.00 | 0.00 | 67 | 1009.8 |
| 20260505175838 | 21 | 153 | 8.0 | 16.1 | 0.00 | 0.00 | 0.00 | 68 | 1009.7 |
| 20260505175334 | 21 | 111 | 4.8 | 4.8 | 0.00 | 0.00 | 0.00 | 68 | 1009.8 |
| 20260505174831 | 20 | 159 | 9.7 | 12.9 | 0.00 | 0.00 | 0.00 | 68 | 1009.9 |
| 20260505174329 | 21 | 251 | 14.5 | 20.9 | 0.00 | 0.00 | 0.00 | 67 | 1009.9 |
| 20260505173824 | 20 | 194 | 11.3 | 14.5 | 0.00 | 0.00 | 0.00 | 70 | 1010.0 |
| 20260505173321 | 20 | 160 | 9.7 | 14.5 | 0.00 | 0.00 | 0.00 | 71 | 1009.8 |
| 20260505172819 | 20 | 298 | 4.8 | 9.7 | 0.00 | 0.00 | 0.00 | 69 | 1009.7 |
| 20260505172316 | 20 | 164 | 16.1 | 20.9 | 0.00 | 0.00 | 0.00 | 71 | 1009.9 |
| 20260505171815 | 20 | 185 | 11.3 | 14.5 | 0.00 | 0.00 | 0.00 | 70 | 1010.0 |
| 20260505171313 | 20 | 190 | 12.9 | 17.7 | 0.00 | 0.00 | 0.00 | 69 | 1009.8 |
| 20260505170809 | 20 | 230 | 4.8 | 8.0 | 0.00 | 0.00 | 0.00 | 69 | 1010.2 |
| 20260505170306 | 21 | 161 | 11.3 | 14.5 | 0.00 | 0.00 | 0.00 | 68 | 1010.0 |
| 20260505165801 | 20 | 261 | 6.4 | 12.9 | 0.00 | 0.00 | 0.00 | 67 | 1010.2 |
| 20260505165257 | 21 | 171 | 9.7 | 12.9 | 0.00 | 0.00 | 0.00 | 66 | 1010.2 |
| 20260505164753 | 21 | 187 | 11.3 | 12.9 | 0.00 | 0.00 | 0.00 | 66 | 1010.0 |
| 20260505164250 | 21 | 114 | 8.0 | 9.7 | 0.00 | 0.00 | 0.00 | 66 | 1010.0 |
| 20260505163749 | 21 | 150 | 8.0 | 11.3 | 0.00 | 0.00 | 0.00 | 65 | 1010.1 |
| 20260505163247 | 21 | 241 | 4.8 | 4.8 | 0.00 | 0.00 | 0.00 | 65 | 1010.1 |
| 20260505162744 | 21 | 205 | 9.7 | 11.3 | 0.00 | 0.00 | 0.00 | 65 | 1010.2 |
| 20260505162241 | 21 | 151 | 4.8 | 4.8 | 0.00 | 0.00 | 0.00 | 65 | 1010.4 |
| 20260505161738 | 21 | 130 | 9.7 | 12.9 | 0.00 | 0.00 | 0.00 | 68 | 1010.6 |
| 20260505161235 | 21 | 184 | 12.9 | 14.5 | 0.00 | 0.00 | 0.00 | 67 | 1010.5 |
| 20260505160732 | 20 | 167 | 8.0 | 12.9 | 0.00 | 0.00 | 0.00 | 68 | 1010.7 |
| 20260505160230 | 21 | 137 | 4.8 | 8.0 | 0.00 | 0.00 | 0.00 | 66 | 1010.6 |
| 20260505153209 | 20 | 163 | 6.4 | 9.7 | 0.00 | 0.00 | 0.00 | 68 | 1010.7 |
| 20260505152706 | 20 | 121 | 8.0 | 9.7 | 0.00 | 0.00 | 0.00 | 68 | 1010.9 |
| 20260505152202 | 20 | 110 | 8.0 | 11.3 | 0.00 | 0.00 | 0.00 | 69 | 1010.9 |
| 20260505151657 | 20 | 105 | 3.2 | 3.2 | 0.00 | 0.00 | 0.00 | 68 | 1010.9 |
| 20260505151156 | 20 | 321 | 4.8 | 8.0 | 0.00 | 0.00 | 0.00 | 69 | 1010.9 |
| 20260505150651 | 20 | 193 | 8.0 | 9.7 | 0.00 | 0.00 | 0.00 | 68 | 1011.1 |
| 20260505150149 | 20 | 237 | 6.4 | 8.0 | 0.00 | 0.00 | 0.00 | 69 | 1011.1 |